Time;durP1;ratioP1;P1;durP2;ratioP2;P2;SDS_P1;SDS_P2;PMS_P1;PMS_P2;Temp;Humidity;BMP_temperature;BMP_pressure;BME280_temperature;BME280_humidity;BME280_pressure;Samples;Min_cycle;Max_cycle;Signal;HPM_P1;HPM_P2
2022/10/31 00:01:39;;;;;;;27.80;14.30;;;;;;;10.33;75.38;99340.84;103196;1295;112184;-70
2022/10/31 00:04:07;;;;;;;29.30;15.00;;;;;;;10.32;75.45;99338.27;103148;1295;99354;-70
2022/10/31 00:06:35;;;;;;;26.50;13.60;;;;;;;10.30;75.56;99343.13;103132;1299;108065;-69
2022/10/31 00:09:05;;;;;;;32.80;15.20;;;;;;;10.29;75.54;99343.03;103138;1295;97637;-68
2022/10/31 00:11:35;;;;;;;30.80;16.60;;;;;;;10.29;75.52;99340.02;103168;1301;99208;-68
2022/10/31 00:14:05;;;;;;;31.10;15.20;;;;;;;10.27;75.61;99334.48;103153;1302;111497;-68
2022/10/31 00:16:32;;;;;;;35.70;16.20;;;;;;;10.24;75.65;99333.06;103107;1296;99317;-68
2022/10/31 00:19:05;;;;;;;29.10;14.40;;;;;;;10.22;75.83;99331.95;103198;1300;108103;-69
2022/10/31 00:21:36;;;;;;;30.30;14.10;;;;;;;10.22;76.08;99332.52;103181;1305;99404;-69
2022/10/31 00:24:06;;;;;;;29.30;14.30;;;;;;;10.23;76.00;99333.67;103232;1294;99294;-69
2022/10/31 00:26:35;;;;;;;27.80;14.70;;;;;;;10.24;75.90;99335.73;103211;1295;113307;-68
2022/10/31 00:29:04;;;;;;;27.30;13.50;;;;;;;10.26;76.03;99334.92;103218;1301;96566;-68
2022/10/31 00:31:33;;;;;;;29.70;14.10;;;;;;;10.28;76.16;99337.96;103223;1300;108054;-68
2022/10/31 00:34:02;;;;;;;25.90;14.20;;;;;;;10.31;76.21;99341.31;103232;1300;99110;-68
2022/10/31 00:36:30;;;;;;;26.70;13.50;;;;;;;10.33;76.20;99341.72;103190;1303;96602;-70
2022/10/31 00:39:01;;;;;;;26.40;13.60;;;;;;;10.35;76.32;99343.20;103206;1304;112547;-68
2022/10/31 00:41:29;;;;;;;27.10;12.50;;;;;;;10.37;76.42;99341.81;103180;1301;99204;-69
2022/10/31 00:43:58;;;;;;;28.50;14.70;;;;;;;10.38;76.28;99340.85;103151;1303;108501;-69
2022/10/31 00:46:26;;;;;;;29.50;14.50;;;;;;;10.39;76.17;99341.70;103191;1300;99372;-69
2022/10/31 00:48:54;;;;;;;31.30;14.50;;;;;;;10.39;76.25;99343.30;103195;1303;99300;-69
2022/10/31 00:51:22;;;;;;;28.60;13.60;;;;;;;10.39;76.25;99341.14;103206;1303;115294;-69
2022/10/31 00:53:51;;;;;;;27.90;13.70;;;;;;;10.40;76.37;99341.80;103181;1297;99350;-70
2022/10/31 00:56:18;;;;;;;26.00;12.60;;;;;;;10.41;76.43;99340.67;103202;1301;107849;-70
2022/10/31 00:58:46;;;;;;;25.40;12.70;;;;;;;10.41;76.44;99341.33;103233;1301;99203;-68
2022/10/31 01:01:14;;;;;;;26.30;11.90;;;;;;;10.42;76.43;99341.27;103119;1300;99229;-73
2022/10/31 01:03:44;;;;;;;26.90;13.10;;;;;;;10.43;76.48;99342.42;103230;1304;113053;-68
2022/10/31 01:06:14;;;;;;;27.90;14.30;;;;;;;10.45;76.47;99340.42;103274;1295;99292;-69
2022/10/31 01:08:46;;;;;;;27.20;13.50;;;;;;;10.44;76.35;99339.23;103179;1301;107446;-70
2022/10/31 01:11:19;;;;;;;25.00;12.60;;;;;;;10.43;76.51;99338.59;103210;1305;99335;-69
2022/10/31 01:13:53;;;;;;;24.60;12.20;;;;;;;10.43;76.56;99335.93;103240;1302;100385;-69
2022/10/31 01:16:25;;;;;;;25.60;12.10;;;;;;;10.45;76.66;99335.11;103282;1300;112654;-70
2022/10/31 01:18:53;;;;;;;24.70;12.90;;;;;;;10.46;76.60;99331.98;103234;1303;99256;-69
2022/10/31 01:21:28;;;;;;;24.10;12.00;;;;;;;10.48;76.55;99334.90;103180;1302;107328;-69
2022/10/31 01:23:57;;;;;;;24.90;12.70;;;;;;;10.49;76.70;99331.63;103175;1297;96510;-71
2022/10/31 01:26:31;;;;;;;26.10;12.40;;;;;;;10.50;76.66;99332.64;103171;1303;99310;-71
2022/10/31 01:29:05;;;;;;;27.00;12.50;;;;;;;10.51;76.66;99335.02;103201;1298;113428;-70
2022/10/31 01:31:38;;;;;;;26.70;12.20;;;;;;;10.52;76.65;99330.86;103254;1300;99210;-70
2022/10/31 01:34:12;;;;;;;26.30;12.10;;;;;;;10.52;76.65;99327.31;103228;1300;107126;-72
2022/10/31 01:36:41;;;;;;;25.70;12.30;;;;;;;10.53;76.67;99323.73;103129;1293;99230;-69
2022/10/31 01:39:13;;;;;;;25.50;12.10;;;;;;;10.53;76.66;99320.71;103253;1298;99433;-66
2022/10/31 01:41:47;;;;;;;25.30;12.40;;;;;;;10.54;76.71;99323.15;103110;1303;112108;-69
2022/10/31 01:44:15;;;;;;;23.50;11.70;;;;;;;10.53;76.65;99320.52;103220;1300;99407;-69
2022/10/31 01:46:48;;;;;;;23.70;11.40;;;;;;;10.53;76.73;99323.38;103228;1301;107532;-68
2022/10/31 01:49:59;;;;;;;24.60;12.40;;;;;;;10.53;76.74;99322.46;103177;1297;99234;-68
2022/10/31 01:52:37;;;;;;;24.60;11.60;;;;;;;10.55;76.72;99324.15;103210;1302;99215;-68
2022/10/31 01:55:13;;;;;;;22.80;11.10;;;;;;;10.55;76.74;99326.46;103022;1304;113126;-69
2022/10/31 01:57:47;;;;;;;25.90;11.60;;;;;;;10.54;76.78;99326.99;103236;1309;99181;-72
2022/10/31 02:00:15;;;;;;;23.40;10.90;;;;;;;10.55;76.81;99327.85;103171;1301;107373;-70
2022/10/31 02:02:45;;;;;;;22.90;10.90;;;;;;;10.55;76.73;99324.68;103199;1306;99187;-69
2022/10/31 02:05:18;;;;;;;23.20;11.20;;;;;;;10.55;76.79;99323.23;103181;1304;99327;-69
2022/10/31 02:08:05;;;;;;;23.60;11.20;;;;;;;10.54;76.70;99324.86;103194;1300;112508;-68
2022/10/31 02:10:36;;;;;;;24.50;11.70;;;;;;;10.53;76.78;99324.95;103101;1294;99235;-70
2022/10/31 02:13:07;;;;;;;23.40;10.70;;;;;;;10.53;76.86;99323.38;103173;1302;107508;-68
2022/10/31 02:15:37;;;;;;;22.10;9.80;;;;;;;10.54;76.86;99324.73;103078;1297;99257;-68
2022/10/31 02:18:08;;;;;;;22.40;10.50;;;;;;;10.54;76.80;99328.30;103184;1302;99253;-69
2022/10/31 02:20:49;;;;;;;20.50;10.20;;;;;;;10.54;76.79;99326.65;103223;1301;112976;-69
2022/10/31 02:23:32;;;;;;;21.40;9.70;;;;;;;10.54;76.80;99329.71;103200;1302;99395;-69
2022/10/31 02:26:44;;;;;;;21.40;9.80;;;;;;;10.53;76.88;99328.31;103194;1301;108076;-70
2022/10/31 02:29:46;;;;;;;23.60;10.60;;;;;;;10.52;76.90;99331.23;103119;1298;99196;-70
2022/10/31 02:32:38;;;;;;;23.20;10.40;;;;;;;10.52;76.96;99331.77;103196;1306;96652;-69
2022/10/31 02:35:28;;;;;;;21.60;10.60;;;;;;;10.50;76.83;99329.05;103122;1298;112960;-69
2022/10/31 02:38:18;;;;;;;24.80;11.60;;;;;;;10.47;76.76;99328.91;103235;1300;97543;-68
2022/10/31 02:40:54;;;;;;;25.50;11.00;;;;;;;10.40;76.69;99333.45;103176;1293;108020;-69
2022/10/31 02:43:53;;;;;;;23.50;10.60;;;;;;;10.32;76.61;99335.91;103217;1303;99951;-69
2022/10/31 02:46:37;;;;;;;23.00;11.20;;;;;;;10.18;76.65;99336.46;103276;1300;99244;-69
2022/10/31 02:49:19;;;;;;;22.60;11.00;;;;;;;10.08;76.60;99340.48;103235;1295;113086;-69
2022/10/31 02:51:50;;;;;;;23.80;11.10;;;;;;;10.03;76.78;99335.15;103179;1304;99179;-69
2022/10/31 02:54:27;;;;;;;24.70;11.30;;;;;;;10.00;76.77;99332.74;103161;1305;107525;-70
2022/10/31 02:57:05;;;;;;;23.40;11.30;;;;;;;9.98;76.86;99333.55;103018;1304;99326;-69
2022/10/31 02:59:39;;;;;;;26.10;11.80;;;;;;;9.99;76.87;99332.96;103172;1296;99240;-68
2022/10/31 03:02:29;;;;;;;21.90;10.30;;;;;;;9.98;76.90;99336.59;103120;1300;112603;-69
2022/10/31 03:05:19;;;;;;;24.00;11.30;;;;;;;9.96;76.90;99342.73;103198;1309;99209;-68
2022/10/31 03:08:18;;;;;;;22.80;10.40;;;;;;;9.93;76.94;99347.67;103194;1300;108133;-69
2022/10/31 03:11:00;;;;;;;21.10;10.00;;;;;;;9.92;77.01;99350.96;103113;1303;99305;-69
2022/10/31 03:13:58;;;;;;;22.80;10.60;;;;;;;9.92;77.08;99357.32;103169;1300;99302;-72
2022/10/31 03:16:34;;;;;;;25.00;11.20;;;;;;;9.94;77.15;99359.30;103145;1299;112624;-70
2022/10/31 03:19:09;;;;;;;22.10;10.00;;;;;;;9.96;77.12;99359.19;103121;1298;99073;-68
2022/10/31 03:21:50;;;;;;;24.10;10.60;;;;;;;9.98;77.17;99357.31;103117;1297;107144;-68
2022/10/31 03:24:22;;;;;;;23.10;10.50;;;;;;;9.98;77.14;99358.17;103144;1304;99299;-68
2022/10/31 03:26:55;;;;;;;23.10;10.70;;;;;;;9.98;77.20;99358.36;103261;1303;99255;-69
2022/10/31 03:29:28;;;;;;;24.30;11.30;;;;;;;9.99;77.18;99356.00;103161;1297;112121;-69
2022/10/31 03:32:01;;;;;;;24.10;11.40;;;;;;;9.98;77.22;99355.84;103195;1294;98932;-70
2022/10/31 03:34:31;;;;;;;;;;;;;;;9.98;77.17;99354.25;103117;1298;107487;-70
2022/10/31 03:37:05;;;;;;;22.60;9.60;;;;;;;9.97;77.30;99357.36;103111;1295;99937;-68
2022/10/31 03:39:36;;;;;;;22.40;10.10;;;;;;;9.98;77.28;99359.56;103178;1301;97645;-69
2022/10/31 03:42:15;;;;;;;20.80;10.10;;;;;;;10.00;77.26;99363.71;103189;1300;112547;-70
2022/10/31 03:44:53;;;;;;;21.30;9.90;;;;;;;10.01;77.27;99361.91;103169;1287;96556;-69
2022/10/31 03:47:23;;;;;;;21.60;10.50;;;;;;;10.02;77.24;99367.33;103061;1303;108083;-69
2022/10/31 03:49:54;;;;;;;20.90;9.90;;;;;;;10.00;77.24;99363.38;103185;1301;99221;-69
2022/10/31 03:52:52;;;;;;;22.90;10.60;;;;;;;10.01;77.19;99366.86;103224;1284;99264;-69
2022/10/31 03:55:34;;;;;;;23.10;10.40;;;;;;;10.00;77.24;99367.80;103097;1309;113541;-69
2022/10/31 03:58:28;;;;;;;23.10;9.80;;;;;;;9.97;77.17;99369.41;103071;1287;99219;-68
2022/10/31 04:00:58;;;;;;;23.90;10.90;;;;;;;9.94;77.30;99376.55;103049;1303;108112;-69
2022/10/31 04:03:33;;;;;;;26.20;11.00;;;;;;;9.93;77.23;99377.46;103690;1295;99236;-70
2022/10/31 04:06:07;;;;;;;21.40;10.20;;;;;;;9.93;77.26;99378.04;103092;1304;99276;-69
2022/10/31 04:08:45;;;;;;;23.10;10.70;;;;;;;9.93;77.29;99374.26;103126;1299;112628;-69
2022/10/31 04:11:19;;;;;;;22.80;11.60;;;;;;;9.91;77.21;99373.34;103153;1300;97617;-69
2022/10/31 04:13:49;;;;;;;21.80;10.20;;;;;;;9.89;77.17;99372.41;103214;1299;107757;-68
2022/10/31 04:16:20;;;;;;;22.10;10.80;;;;;;;9.87;77.26;99368.27;103126;1304;99383;-69
2022/10/31 04:18:48;;;;;;;24.70;10.00;;;;;;;9.86;77.34;99370.81;103196;1302;99153;-70
2022/10/31 04:21:16;;;;;;;23.10;10.50;;;;;;;9.84;77.23;99369.70;103171;1300;112571;-68
2022/10/31 04:23:47;;;;;;;22.90;10.60;;;;;;;9.81;77.21;99375.36;103226;1296;99306;-69
2022/10/31 04:26:14;;;;;;;21.70;10.70;;;;;;;9.79;77.28;99375.70;103248;1302;107724;-68
2022/10/31 04:28:42;;;;;;;22.70;11.60;;;;;;;9.76;77.23;99375.55;103232;1296;99116;-69
2022/10/31 04:31:13;;;;;;;21.50;10.40;;;;;;;9.74;77.23;99377.48;103215;1295;99949;-69
2022/10/31 04:33:41;;;;;;;23.60;10.60;;;;;;;9.72;77.26;99378.30;103219;1300;112533;-69
2022/10/31 04:36:10;;;;;;;26.00;11.70;;;;;;;9.71;77.30;99376.40;103287;1301;99868;-69
2022/10/31 04:38:38;;;;;;;22.40;10.70;;;;;;;9.69;77.27;99378.46;103170;1289;108108;-70
2022/10/31 04:41:06;;;;;;;23.90;10.70;;;;;;;9.68;77.36;99380.27;103078;1297;99313;-69
2022/10/31 04:43:34;;;;;;;23.30;11.20;;;;;;;9.68;77.44;99376.40;102064;1297;1645413;-68
2022/10/31 04:46:03;;;;;;;23.20;10.80;;;;;;;9.67;77.43;99375.73;103039;1306;99237;-68
2022/10/31 04:48:30;;;;;;;22.90;10.60;;;;;;;9.65;77.37;99383.65;103124;1294;96488;-69
2022/10/31 04:51:03;;;;;;;23.70;11.20;;;;;;;9.64;77.36;99378.77;103166;1302;108068;-69
2022/10/31 04:53:31;;;;;;;21.50;10.70;;;;;;;9.63;77.46;99379.88;103152;1301;96569;-69
2022/10/31 04:56:00;;;;;;;21.20;10.10;;;;;;;9.62;77.47;99379.06;103218;1301;99271;-70
2022/10/31 04:58:29;;;;;;;23.30;10.40;;;;;;;9.61;77.34;99381.45;103255;1304;112415;-70
2022/10/31 05:00:57;;;;;;;22.40;9.90;;;;;;;9.59;77.42;99380.20;103263;1299;99313;-71
2022/10/31 05:03:25;;;;;;;22.10;9.70;;;;;;;9.57;77.47;99380.67;103165;1297;107444;-69
2022/10/31 05:05:52;;;;;;;21.30;9.90;;;;;;;9.56;77.47;99381.45;103203;1295;99189;-68
2022/10/31 05:08:24;;;;;;;20.20;9.50;;;;;;;9.55;77.54;99382.71;103278;1296;98311;-69
2022/10/31 05:10:52;;;;;;;22.30;10.10;;;;;;;9.53;77.59;99382.46;103253;1295;112961;-69
2022/10/31 05:13:24;;;;;;;22.40;9.70;;;;;;;9.52;77.56;99389.63;103235;1300;99481;-69
2022/10/31 05:15:52;;;;;;;22.70;10.40;;;;;;;9.49;77.53;99389.42;103207;1303;108123;-69
2022/10/31 05:18:22;;;;;;;21.30;9.30;;;;;;;9.47;77.32;99392.77;103177;1303;99185;-69
2022/10/31 05:20:50;;;;;;;20.80;9.80;;;;;;;9.44;77.34;99395.07;103217;1297;96544;-69
2022/10/31 05:23:18;;;;;;;21.80;10.60;;;;;;;9.40;77.37;99400.09;103156;1302;113009;-69
2022/10/31 05:25:46;;;;;;;23.30;10.70;;;;;;;9.38;77.47;99406.09;102959;1304;99295;-69
2022/10/31 05:28:13;;;;;;;20.40;10.10;;;;;;;9.36;77.43;99410.30;103140;1304;107719;-68
2022/10/31 05:30:41;;;;;;;22.20;9.70;;;;;;;9.35;77.53;99409.45;103085;1294;99231;-69
2022/10/31 05:33:09;;;;;;;22.60;9.60;;;;;;;9.34;77.53;99411.98;103108;1295;97702;-70
2022/10/31 05:35:37;;;;;;;22.20;9.90;;;;;;;9.34;77.56;99412.17;103129;1295;113120;-69
2022/10/31 05:38:06;;;;;;;21.90;9.60;;;;;;;9.35;77.72;99413.52;103011;1295;99417;-69
2022/10/31 05:40:34;;;;;;;20.00;9.40;;;;;;;9.36;77.75;99416.29;103107;1295;108505;-69
2022/10/31 05:43:02;;;;;;;21.20;10.10;;;;;;;9.39;77.78;99413.46;103098;1300;99271;-69
2022/10/31 05:45:31;;;;;;;20.70;9.80;;;;;;;9.42;77.77;99415.55;103189;1287;99283;-69
2022/10/31 05:48:02;;;;;;;25.70;9.90;;;;;;;9.46;77.88;99411.60;103168;1295;112640;-71
2022/10/31 05:50:32;;;;;;;19.00;8.70;;;;;;;9.50;77.98;99413.29;103219;1295;99137;-69
2022/10/31 05:53:04;;;;;;;19.90;9.30;;;;;;;9.55;77.98;99415.66;103205;1294;107714;-69
2022/10/31 05:55:34;;;;;;;21.20;8.40;;;;;;;9.60;77.97;99420.64;103191;1293;99168;-69
2022/10/31 05:58:02;;;;;;;20.80;9.00;;;;;;;9.64;78.01;99422.52;103186;1294;99307;-70
2022/10/31 06:00:34;;;;;;;18.80;8.20;;;;;;;9.68;77.90;99422.61;103169;1301;113089;-68
2022/10/31 06:03:07;;;;;;;19.80;8.50;;;;;;;9.72;77.96;99424.32;103186;1295;99241;-69
2022/10/31 06:05:36;;;;;;;17.50;7.90;;;;;;;9.76;77.96;99429.03;103169;1301;108117;-69
2022/10/31 06:08:05;;;;;;;18.00;7.80;;;;;;;9.80;77.93;99430.20;103101;1297;96626;-69
2022/10/31 06:10:33;;;;;;;18.80;7.50;;;;;;;9.84;77.90;99433.83;103201;1296;99326;-69
2022/10/31 06:13:01;;;;;;;20.70;8.70;;;;;;;9.88;77.94;99433.58;103235;1294;113086;-69
2022/10/31 06:15:29;;;;;;;17.10;7.20;;;;;;;9.92;77.90;99434.23;103220;1294;99138;-69
2022/10/31 06:17:59;;;;;;;18.60;7.30;;;;;;;9.96;77.90;99432.02;103080;1301;107571;-69
2022/10/31 06:20:29;;;;;;;17.50;7.80;;;;;;;9.99;78.00;99433.38;103196;1301;99353;-69
2022/10/31 06:22:57;;;;;;;17.40;7.10;;;;;;;10.05;78.00;99432.67;103161;1302;99244;-69
2022/10/31 06:25:29;;;;;;;18.50;7.30;;;;;;;10.09;78.02;99432.96;103178;1295;112646;-68
2022/10/31 06:27:56;;;;;;;17.00;7.40;;;;;;;10.13;78.02;99434.11;103283;1295;99237;-69
2022/10/31 06:30:27;;;;;;;15.80;6.50;;;;;;;10.18;78.00;99441.03;103214;1296;107479;-70
2022/10/31 06:33:01;;;;;;;18.10;6.60;;;;;;;10.22;78.04;99437.75;103260;1297;99179;-72
2022/10/31 06:35:33;;;;;;;20.90;7.00;;;;;;;10.27;78.06;99441.67;103290;1301;99610;-69
2022/10/31 06:38:02;;;;;;;17.00;6.40;;;;;;;10.32;78.01;99441.96;103261;1300;113143;-69
2022/10/31 06:40:32;;;;;;;16.90;6.70;;;;;;;10.36;78.05;99444.52;103222;1297;99198;-69
2022/10/31 06:43:02;;;;;;;16.80;7.00;;;;;;;10.39;78.04;99443.94;103139;1294;107233;-71
2022/10/31 06:45:29;;;;;;;17.00;6.80;;;;;;;10.43;78.10;99440.50;103191;1297;99177;-71
2022/10/31 06:47:57;;;;;;;16.90;7.00;;;;;;;10.47;78.01;99442.90;103235;1291;99870;-69
2022/10/31 06:50:48;;;;;;;13.60;6.80;;;;;;;10.53;78.10;99441.85;103124;1297;113108;-70
2022/10/31 06:53:18;;;;;;;18.30;7.60;;;;;;;10.56;78.08;99443.73;103066;1296;99131;-70
2022/10/31 06:55:46;;;;;;;15.10;6.60;;;;;;;10.61;78.02;99443.05;103254;1300;108074;-70
2022/10/31 06:58:15;;;;;;;14.80;6.10;;;;;;;10.66;78.05;99441.70;103193;1293;99205;-69
2022/10/31 07:00:43;;;;;;;17.40;6.60;;;;;;;10.70;78.06;99446.39;103030;1294;99895;-69
2022/10/31 07:03:15;;;;;;;16.00;6.70;;;;;;;10.74;77.93;99442.74;103017;1304;113103;-69
2022/10/31 07:05:43;;;;;;;16.80;6.90;;;;;;;10.79;78.12;99444.91;103114;1304;99907;-70
2022/10/31 07:08:14;;;;;;;17.30;6.40;;;;;;;10.84;78.12;99446.48;103166;1297;107429;-70
2022/10/31 07:10:50;;;;;;;13.30;5.90;;;;;;;10.89;78.03;99442.48;103189;1295;99324;-69
2022/10/31 07:13:21;;;;;;;15.90;6.70;;;;;;;10.94;78.02;99445.85;103055;1296;99308;-69
2022/10/31 07:15:51;;;;;;;16.10;6.30;;;;;;;10.98;77.98;99448.19;103416;1300;112535;-69
2022/10/31 07:18:21;;;;;;;15.30;6.50;;;;;;;11.04;77.98;99448.92;103222;1300;96846;-68
2022/10/31 07:20:49;;;;;;;12.20;5.90;;;;;;;11.09;78.08;99451.19;103237;1295;108716;-71
2022/10/31 07:23:16;;;;;;;16.70;6.80;;;;;;;11.15;78.11;99457.39;103224;1296;99265;-69
2022/10/31 07:25:46;;;;;;;16.90;6.60;;;;;;;11.20;77.99;99459.68;103101;1291;99344;-69
2022/10/31 07:28:14;;;;;;;17.00;6.70;;;;;;;11.23;77.97;99459.61;103197;1289;113124;-70
2022/10/31 07:30:42;;;;;;;16.90;6.20;;;;;;;11.27;77.99;99460.40;103270;1297;97774;-70
2022/10/31 07:33:10;;;;;;;17.30;6.30;;;;;;;11.31;78.06;99459.40;103196;1295;108041;-69
2022/10/31 07:35:38;;;;;;;17.90;6.40;;;;;;;11.37;78.14;99463.16;103179;1301;99485;-68
2022/10/31 07:38:09;;;;;;;15.70;6.00;;;;;;;11.42;78.06;99468.66;103189;1303;99739;-69
2022/10/31 07:40:39;;;;;;;17.50;5.90;;;;;;;11.46;78.02;99469.26;103212;1301;112394;-70
2022/10/31 07:43:12;;;;;;;18.50;6.40;;;;;;;11.48;77.90;99470.73;103237;1296;99027;-68
2022/10/31 07:45:42;;;;;;;14.90;6.10;;;;;;;11.53;78.02;99470.23;103036;1294;108127;-70
2022/10/31 07:48:12;;;;;;;13.10;5.50;;;;;;;11.57;77.93;99475.04;103148;1302;99212;-69
2022/10/31 07:50:41;;;;;;;13.30;5.60;;;;;;;11.59;77.89;99469.07;103243;1294;99333;-70
2022/10/31 07:53:11;;;;;;;16.80;5.70;;;;;;;11.62;77.94;99469.20;103130;1297;113136;-70
2022/10/31 07:55:41;;;;;;;17.90;5.90;;;;;;;11.66;78.00;99460.73;103240;1297;99217;-70
2022/10/31 07:58:16;;;;;;;10.60;4.90;;;;;;;11.71;78.17;99463.58;103140;1292;108040;-70
2022/10/31 08:00:47;;;;;;;12.90;5.70;;;;;;;11.75;78.03;99459.02;103209;1303;99366;-70
2022/10/31 08:03:18;;;;;;;13.60;5.70;;;;;;;11.77;78.00;99464.08;103233;1297;99341;-70
2022/10/31 08:05:47;;;;;;;12.10;5.10;;;;;;;11.81;77.90;99463.25;103193;1295;112945;-68
2022/10/31 08:08:16;;;;;;;12.20;5.60;;;;;;;11.85;77.94;99465.07;103234;1287;99236;-70
2022/10/31 08:10:45;;;;;;;12.50;5.70;;;;;;;11.89;77.98;99461.44;103294;1295;106694;-69
2022/10/31 08:13:15;;;;;;;14.60;6.00;;;;;;;11.95;77.95;99464.76;103152;1295;98566;-69
2022/10/31 08:15:44;;;;;;;16.00;5.50;;;;;;;12.02;78.03;99468.02;103236;1287;96706;-69
2022/10/31 08:18:16;;;;;;;14.00;5.60;;;;;;;12.08;77.97;99473.59;103200;1295;113100;-69
2022/10/31 08:20:45;;;;;;;14.60;5.90;;;;;;;12.16;78.08;99469.14;103178;1287;99300;-68
2022/10/31 08:23:15;;;;;;;13.70;5.80;;;;;;;12.25;78.02;99471.35;103195;1301;108100;-69
2022/10/31 08:25:46;;;;;;;14.00;6.40;;;;;;;12.32;77.99;99473.11;103180;1297;99268;-69
2022/10/31 08:28:16;;;;;;;11.00;5.40;;;;;;;12.41;77.99;99471.96;103225;1301;99262;-71
2022/10/31 08:30:45;;;;;;;13.40;6.30;;;;;;;12.55;78.03;99474.31;103249;1292;111506;-71
2022/10/31 08:33:17;;;;;;;13.40;6.10;;;;;;;12.76;77.95;99480.73;103237;1297;98314;-71
2022/10/31 08:35:45;;;;;;;14.10;5.40;;;;;;;13.00;78.07;99485.15;103282;1297;105812;-71
2022/10/31 08:38:14;;;;;;;13.40;5.30;;;;;;;13.26;77.92;99485.34;103209;1301;99292;-71
2022/10/31 08:40:48;;;;;;;11.90;5.40;;;;;;;13.53;77.83;99487.05;103210;1295;99299;-69
2022/10/31 08:43:18;;;;;;;16.00;5.90;;;;;;;13.81;77.78;99490.51;103161;1301;112728;-68
2022/10/31 08:45:49;;;;;;;13.60;5.60;;;;;;;14.08;77.78;99488.20;103248;1301;99289;-68
2022/10/31 08:48:17;;;;;;;11.90;5.20;;;;;;;14.35;77.66;99483.91;103236;1294;108218;-69
2022/10/31 08:50:48;;;;;;;13.10;5.50;;;;;;;14.64;77.60;99484.95;103151;1297;99260;-67
2022/10/31 08:53:19;;;;;;;13.00;5.20;;;;;;;14.94;77.50;99477.13;103210;1294;96569;-68
2022/10/31 08:55:48;;;;;;;15.10;5.10;;;;;;;15.25;77.27;99474.15;103169;1301;112534;-67
2022/10/31 08:58:19;;;;;;;12.90;4.80;;;;;;;15.57;77.36;99476.23;103180;1294;99296;-67
2022/10/31 09:00:51;;;;;;;11.70;4.90;;;;;;;15.91;77.17;99480.07;103167;1301;108000;-68
2022/10/31 09:03:26;;;;;;;17.50;5.60;;;;;;;16.27;77.35;99476.55;103165;1301;99386;-68
2022/10/31 09:06:01;;;;;;;14.50;4.80;;;;;;;16.69;77.12;99479.22;103186;1287;99246;-68
2022/10/31 09:08:32;;;;;;;10.30;4.70;;;;;;;17.14;76.89;99476.90;103194;1297;112791;-69
2022/10/31 09:11:00;;;;;;;11.80;4.30;;;;;;;17.58;76.52;99471.00;103205;1294;96557;-68
2022/10/31 09:13:27;;;;;;;11.90;5.00;;;;;;;18.01;76.10;99473.19;103121;1304;106759;-69
2022/10/31 09:16:00;;;;;;;9.10;4.00;;;;;;;18.39;75.96;99473.66;103209;1301;99262;-69
2022/10/31 09:18:28;;;;;;;10.20;4.70;;;;;;;18.71;75.58;99469.72;103164;1302;98323;-69
2022/10/31 09:20:59;;;;;;;12.40;5.00;;;;;;;18.95;75.55;99465.20;103208;1291;113064;-68
2022/10/31 09:23:28;;;;;;;16.50;5.50;;;;;;;19.03;75.48;99462.63;103224;1288;99321;-69
2022/10/31 09:26:00;;;;;;;10.60;4.20;;;;;;;19.06;75.04;99463.63;103148;1301;108115;-69
2022/10/31 09:28:28;;;;;;;12.80;4.90;;;;;;;19.10;75.31;99459.39;103154;1304;100053;-68
2022/10/31 09:30:55;;;;;;;11.10;5.20;;;;;;;19.14;75.15;99462.39;103065;1290;99424;-69
2022/10/31 09:33:23;;;;;;;10.80;4.50;;;;;;;19.18;75.11;99465.03;103160;1304;113087;-68
2022/10/31 09:35:51;;;;;;;10.00;4.50;;;;;;;19.25;74.96;99467.03;103028;1296;99243;-68
2022/10/31 09:38:21;;;;;;;10.90;4.10;;;;;;;19.26;73.95;99466.03;103170;1301;108249;-67
2022/10/31 09:41:06;;;;;;;10.20;4.50;;;;;;;19.23;74.31;99467.39;103153;1302;99290;-68
2022/10/31 09:43:58;;;;;;;11.50;4.40;;;;;;;19.21;74.27;99465.86;103272;1301;99352;-68
2022/10/31 09:46:50;;;;;;;11.50;4.40;;;;;;;19.28;74.26;99464.77;103140;1295;112560;-68
2022/10/31 09:49:46;;;;;;;11.20;4.50;;;;;;;19.26;73.90;99465.27;103064;1304;99336;-68
2022/10/31 09:52:23;;;;;;;16.30;5.90;;;;;;;19.32;73.81;99472.92;103260;1294;109128;-69
2022/10/31 09:55:05;;;;;;;10.10;4.50;;;;;;;19.39;73.58;99471.85;103219;1293;99161;-67
2022/10/31 09:57:36;;;;;;;15.00;4.80;;;;;;;19.44;73.54;99468.00;103155;1297;99824;-69
2022/10/31 10:00:07;;;;;;;11.60;4.80;;;;;;;19.49;73.57;99471.23;103198;1289;112504;-69
2022/10/31 10:02:54;;;;;;;11.30;4.70;;;;;;;19.57;73.46;99469.73;103050;1300;96643;-70
2022/10/31 10:05:40;;;;;;;12.50;4.50;;;;;;;19.70;73.43;99470.67;103150;1294;108098;-68
2022/10/31 10:08:19;;;;;;;12.50;4.40;;;;;;;19.80;73.12;99470.34;103155;1301;99428;-69
2022/10/31 10:10:55;;;;;;;14.30;4.90;;;;;;;19.86;72.85;99468.82;103152;1301;99209;-67
2022/10/31 10:14:04;;;;;;;16.20;5.10;;;;;;;19.92;72.73;99470.95;103139;1294;113088;-68
2022/10/31 10:17:10;;;;;;;13.50;5.20;;;;;;;19.99;72.77;99470.59;103147;1295;99308;-67
2022/10/31 10:19:51;;;;;;;13.20;4.90;;;;;;;20.03;72.89;99470.34;103041;1301;108040;-68
2022/10/31 10:22:52;;;;;;;11.60;4.70;;;;;;;20.04;72.31;99470.38;103100;1296;99462;-70
2022/10/31 10:25:41;;;;;;;14.20;5.00;;;;;;;20.06;72.40;99466.73;103123;1300;99213;-69
2022/10/31 10:28:21;;;;;;;12.90;5.30;;;;;;;20.10;72.07;99468.17;103154;1294;112518;-69
2022/10/31 10:30:58;;;;;;;14.50;5.70;;;;;;;20.12;71.92;99464.55;103183;1297;96520;-69
2022/10/31 10:33:41;;;;;;;14.50;5.30;;;;;;;20.19;72.24;99465.80;103164;1295;107433;-68
2022/10/31 10:36:19;;;;;;;15.80;5.10;;;;;;;20.15;71.51;99467.58;103153;1287;100002;-69
2022/10/31 10:39:00;;;;;;;17.10;5.70;;;;;;;20.17;71.46;99466.30;103214;1301;99263;-69
2022/10/31 10:41:32;;;;;;;13.00;5.20;;;;;;;20.24;71.40;99465.71;103219;1300;113080;-69
2022/10/31 10:44:09;;;;;;;63.40;38.40;;;;;;;20.28;71.34;99463.22;103263;1291;96963;-69
2022/10/31 10:49:50;;;;;;;17.50;5.70;;;;;;;20.28;70.77;99461.23;103161;1305;99670;-68
2022/10/31 10:52:30;;;;;;;14.60;5.20;;;;;;;20.34;70.87;99460.61;103046;1301;99251;-69
2022/10/31 10:55:33;;;;;;;18.40;6.20;;;;;;;20.34;70.72;99457.67;103145;1296;112914;-70
2022/10/31 10:58:06;;;;;;;14.60;6.20;;;;;;;20.38;70.48;99457.64;103182;1301;99039;-70
2022/10/31 11:00:38;;;;;;;;;;;;;;;20.41;70.45;99454.93;103025;1297;107288;-68
2022/10/31 11:03:10;;;;;;;12.60;5.70;;;;;;;20.36;70.25;99453.48;103150;1301;99221;-68
2022/10/31 11:05:51;;;;;;;19.10;5.80;;;;;;;20.32;70.12;99450.02;103224;1295;97213;-71
2022/10/31 11:08:34;;;;;;;18.90;5.40;;;;;;;20.25;69.84;99453.39;103191;1304;113131;-69
2022/10/31 11:11:06;;;;;;;13.30;5.30;;;;;;;20.24;69.78;99450.44;103238;1296;99858;-69
2022/10/31 11:13:40;;;;;;;13.20;5.70;;;;;;;20.29;69.74;99450.70;103216;1295;106839;-68
2022/10/31 11:16:26;;;;;;;19.30;6.80;;;;;;;20.30;69.47;99450.73;103154;1300;99235;-68
2022/10/31 11:19:07;;;;;;;32.50;6.90;;;;;;;20.31;69.22;99447.38;103224;1300;99304;-68
2022/10/31 11:21:35;;;;;;;19.70;6.20;;;;;;;20.37;69.19;99446.48;103182;1295;112102;-68
2022/10/31 11:24:10;;;;;;;16.30;6.10;;;;;;;20.42;69.07;99445.82;103013;1303;99921;-69
2022/10/31 11:26:40;;;;;;;17.00;6.20;;;;;;;20.47;69.12;99443.80;103206;1301;107187;-69
2022/10/31 11:29:24;;;;;;;17.60;6.20;;;;;;;20.51;68.72;99439.12;103169;1294;99238;-69
2022/10/31 11:31:55;;;;;;;15.00;6.00;;;;;;;20.52;68.38;99440.78;103120;1297;99440;-68
2022/10/31 11:34:31;;;;;;;18.10;6.10;;;;;;;20.52;68.51;99440.77;103205;1302;112464;-69
2022/10/31 11:37:16;;;;;;;18.40;5.90;;;;;;;20.53;68.23;99443.95;103188;1296;99431;-68
2022/10/31 11:39:53;;;;;;;18.90;6.50;;;;;;;20.54;68.22;99442.94;103188;1294;107531;-69
2022/10/31 11:42:26;;;;;;;18.70;6.40;;;;;;;20.57;68.23;99442.23;103227;1295;99217;-69
2022/10/31 11:44:56;;;;;;;20.00;5.80;;;;;;;20.61;68.22;99444.16;103229;1303;99375;-70
2022/10/31 11:47:29;;;;;;;18.50;7.30;;;;;;;20.66;68.23;99439.77;103262;1293;113062;-69